Time;durP1;ratioP1;P1;durP2;ratioP2;P2;SDS_P1;SDS_P2;PMS_P1;PMS_P2;Temp;Humidity;BMP_temperature;BMP_pressure;BME280_temperature;BME280_humidity;BME280_pressure;Samples;Min_cycle;Max_cycle;Signal;HPM_P1;HPM_P2
2022/11/17 00:01:59;;;;;;;1.05;0.98;;;;;;;;;;5077640;28;20749;-80
2022/11/17 00:04:29;;;;;;;0.30;0.30;;;;;;;;;;5083084;28;20028;-80
2022/11/17 00:06:55;;;;;;;2.73;2.53;;;;;;;;;;5079035;28;20035;-80
2022/11/17 00:09:22;;;;;;;1.57;1.47;;;;;;;;;;5086860;28;20060;-80
2022/11/17 00:14:35;;;;;;;0.10;0.10;;;;;;;;;;5082929;28;20059;-80
2022/11/17 00:17:05;;;;;;;0.10;0.10;;;;;;;;;;5089367;28;20239;-80
2022/11/17 00:22:16;;;;;;;0.70;0.70;;;;;;;;;;5088173;28;20027;-80
2022/11/17 00:24:43;;;;;;;3.00;2.90;;;;;;;;;;5080438;28;20039;-81
2022/11/17 00:27:09;;;;;;;0.10;0.10;;;;;;;;;;5089302;28;20028;-80
2022/11/17 00:29:35;;;;;;;0.93;0.93;;;;;;;;;;5090841;28;20063;-80
2022/11/17 00:34:46;;;;;;;0.10;0.10;;;;;;;;;;5092373;28;20031;-80
2022/11/17 00:37:14;;;;;;;0.50;0.47;;;;;;;;;;5079546;28;20462;-80
2022/11/17 00:39:40;;;;;;;0.53;0.53;;;;;;;;;;5092302;28;20036;-82
2022/11/17 00:42:07;;;;;;;0.10;0.10;;;;;;;;;;5085445;28;20111;-80
2022/11/17 00:44:33;;;;;;;1.20;0.93;;;;;;;;;;5083623;28;20385;-80
2022/11/17 00:46:59;;;;;;;2.27;0.50;;;;;;;;;;5077387;28;20501;-80
2022/11/17 00:49:26;;;;;;;3.80;1.90;;;;;;;;;;5087088;28;20024;-80
2022/11/17 00:51:53;;;;;;;0.20;0.20;;;;;;;;;;5084006;28;20051;-80
2022/11/17 00:54:19;;;;;;;0.70;0.60;;;;;;;;;;5095092;28;20016;-80
2022/11/17 00:56:46;;;;;;;1.80;1.13;;;;;;;;;;5088008;28;20108;-80
2022/11/17 00:59:13;;;;;;;3.83;1.57;;;;;;;;;;5085193;28;20128;-80
2022/11/17 01:01:39;;;;;;;2.77;2.57;;;;;;;;;;5079328;28;20074;-80
2022/11/17 01:04:06;;;;;;;8.87;4.60;;;;;;;;;;5091827;28;20531;-80
2022/11/17 01:06:34;;;;;;;2.43;2.23;;;;;;;;;;5091254;28;20378;-80
2022/11/17 01:09:05;;;;;;;1.83;1.50;;;;;;;;;;5085759;28;20077;-80
2022/11/17 01:11:31;;;;;;;2.93;2.60;;;;;;;;;;5087118;28;20039;-80
2022/11/17 01:13:58;;;;;;;0.63;0.63;;;;;;;;;;5079868;28;20474;-80
2022/11/17 01:16:26;;;;;;;1.47;1.33;;;;;;;;;;5082807;28;20028;-80
2022/11/17 01:18:52;;;;;;;0.37;0.37;;;;;;;;;;5089210;28;20302;-80
2022/11/17 01:21:20;;;;;;;1.00;0.83;;;;;;;;;;5098730;28;20029;-80
2022/11/17 01:23:47;;;;;;;1.13;0.53;;;;;;;;;;5093837;28;20050;-80
2022/11/17 01:26:15;;;;;;;3.67;2.70;;;;;;;;;;5089536;28;20020;-81
2022/11/17 01:28:41;;;;;;;2.67;1.73;;;;;;;;;;5094550;28;20028;-80
2022/11/17 01:31:10;;;;;;;6.03;3.17;;;;;;;;;;5093545;28;20074;-81
2022/11/17 01:33:36;;;;;;;0.73;0.73;;;;;;;;;;5094515;28;20046;-81
2022/11/17 01:36:07;;;;;;;7.70;4.20;;;;;;;;;;5085375;28;20044;-79
2022/11/17 01:38:33;;;;;;;4.23;3.10;;;;;;;;;;5082628;28;20494;-79
2022/11/17 01:41:00;;;;;;;2.50;1.63;;;;;;;;;;5085936;28;20059;-81
2022/11/17 01:43:36;;;;;;;2.60;2.27;;;;;;;;;;5088525;28;20024;-80
2022/11/17 01:46:02;;;;;;;4.03;3.17;;;;;;;;;;5092634;28;20024;-79
2022/11/17 01:48:28;;;;;;;3.13;1.97;;;;;;;;;;5093087;28;20641;-81
2022/11/17 01:50:55;;;;;;;4.03;2.33;;;;;;;;;;5091768;28;20044;-79
2022/11/17 01:53:23;;;;;;;6.40;2.93;;;;;;;;;;5086484;28;20032;-80
2022/11/17 01:55:55;;;;;;;1.23;1.10;;;;;;;;;;5087227;28;20032;-80
2022/11/17 01:58:30;;;;;;;7.30;4.53;;;;;;;;;;5091162;28;20028;-81
2022/11/17 02:00:57;;;;;;;3.03;2.10;;;;;;;;;;5090436;28;20059;-81
2022/11/17 02:03:24;;;;;;;4.37;2.87;;;;;;;;;;5091667;28;20028;-79
2022/11/17 02:06:04;;;;;;;3.43;1.70;;;;;;;;;;5090952;28;20032;-80
2022/11/17 02:08:32;;;;;;;1.27;0.73;;;;;;;;;;5084479;28;20055;-81
2022/11/17 02:11:00;;;;;;;4.53;4.23;;;;;;;;;;5084308;28;20036;-80
2022/11/17 02:13:27;;;;;;;31.10;8.53;;;;;;;;;;5090491;28;20142;-80
2022/11/17 02:15:53;;;;;;;11.87;7.33;;;;;;;;;;5088084;28;20032;-80
2022/11/17 02:18:20;;;;;;;13.40;5.47;;;;;;;;;;5083261;28;20525;-79
2022/11/17 02:20:51;;;;;;;15.60;5.57;;;;;;;;;;5081308;28;20028;-78
2022/11/17 02:23:20;;;;;;;6.53;5.07;;;;;;;;;;5086161;28;20527;-81
2022/11/17 02:26:05;;;;;;;5.53;2.03;;;;;;;;;;5084996;28;20461;-80
2022/11/17 02:28:34;;;;;;;8.43;5.27;;;;;;;;;;5087201;28;20031;-80
2022/11/17 02:31:12;;;;;;;17.10;7.50;;;;;;;;;;5085519;28;20043;-79
2022/11/17 02:33:50;;;;;;;6.40;5.87;;;;;;;;;;5077626;28;20028;-80
2022/11/17 02:36:18;;;;;;;9.17;4.57;;;;;;;;;;5084022;28;20043;-79
2022/11/17 02:40:51;;;;;;;8.70;4.73;;;;;;;;;;5098117;27;20404;-78
2022/11/17 02:46:10;;;;;;;2.47;2.27;;;;;;;;;;5070123;28;20111;-79
2022/11/17 02:48:39;;;;;;;3.67;2.37;;;;;;;;;;5044931;28;20032;-75
2022/11/17 02:51:07;;;;;;;2.40;1.60;;;;;;;;;;5046251;28;20029;-78
2022/11/17 02:53:34;;;;;;;5.87;3.33;;;;;;;;;;5044669;28;20036;-75
2022/11/17 02:56:01;;;;;;;1.17;1.07;;;;;;;;;;5064193;28;20029;-76
2022/11/17 02:58:27;;;;;;;0.73;0.73;;;;;;;;;;5063517;28;20529;-76
2022/11/17 03:01:12;;;;;;;0.60;0.50;;;;;;;;;;5060999;28;20034;-75
2022/11/17 03:03:46;;;;;;;2.20;0.90;;;;;;;;;;5062299;28;20025;-75
2022/11/17 03:06:31;;;;;;;1.40;1.40;;;;;;;;;;5046713;28;20031;-76
2022/11/17 03:09:03;;;;;;;4.17;2.90;;;;;;;;;;5059517;28;20036;-75
2022/11/17 03:11:39;;;;;;;2.43;2.10;;;;;;;;;;5063603;28;20028;-75
2022/11/17 03:14:15;;;;;;;3.30;2.03;;;;;;;;;;5059723;28;20165;-73
2022/11/17 03:16:47;;;;;;;11.73;2.90;;;;;;;;;;5061523;28;20040;-75
2022/11/17 03:19:22;;;;;;;19.30;4.10;;;;;;;;;;5060672;28;20024;-72
2022/11/17 03:21:56;;;;;;;6.07;2.90;;;;;;;;;;5056050;28;20024;-72
2022/11/17 03:24:46;;;;;;;2.47;2.27;;;;;;;;;;5044958;28;20463;-73
2022/11/17 03:27:16;;;;;;;0.60;0.60;;;;;;;;;;5032142;28;20523;-74
2022/11/17 03:29:44;;;;;;;0.10;0.10;;;;;;;;;;5064683;28;20059;-73
2022/11/17 03:32:10;;;;;;;4.70;3.60;;;;;;;;;;5065541;28;20111;-73
2022/11/17 03:34:41;;;;;;;4.40;2.43;;;;;;;;;;5046872;28;20025;-73
2022/11/17 03:37:09;;;;;;;2.53;1.93;;;;;;;;;;5057506;28;20415;-73
2022/11/17 03:39:37;;;;;;;1.73;1.23;;;;;;;;;;5053779;28;20041;-72
2022/11/17 03:42:24;;;;;;;4.20;3.93;;;;;;;;;;5024932;28;20063;-74
2022/11/17 03:44:56;;;;;;;2.43;2.23;;;;;;;;;;5038728;28;20556;-74
2022/11/17 03:47:24;;;;;;;1.90;1.17;;;;;;;;;;5035712;28;20026;-75
2022/11/17 03:49:56;;;;;;;2.07;1.93;;;;;;;;;;5021178;28;20043;-75
2022/11/17 03:52:24;;;;;;;2.27;2.07;;;;;;;;;;5032417;28;20021;-79
2022/11/17 03:55:00;;;;;;;1.10;0.43;;;;;;;;;;5028256;28;20136;-80
2022/11/17 03:57:51;;;;;;;0.20;0.20;;;;;;;;;;5031884;28;20029;-79
2022/11/17 04:00:19;;;;;;;0.00;0.00;;;;;;;;;;5009683;28;20088;-80
2022/11/17 04:02:46;;;;;;;5.93;4.53;;;;;;;;;;5043848;28;20071;-84
2022/11/17 04:05:14;;;;;;;2.23;2.03;;;;;;;;;;5018602;28;20123;-86
2022/11/17 04:07:44;;;;;;;3.60;2.50;;;;;;;;;;5028471;28;20038;-80
2022/11/17 04:10:21;;;;;;;1.17;1.08;;;;;;;;;;5013066;28;20423;-78
2022/11/17 04:18:21;;;;;;;13.63;2.63;;;;;;;;;;5027320;28;20661;-81
2022/11/17 04:20:55;;;;;;;0.85;0.85;;;;;;;;;;5034188;28;20045;-79
2022/11/17 04:23:21;;;;;;;3.95;2.92;;;;;;;;;;5014487;28;20502;-82
2022/11/17 04:28:37;;;;;;;8.65;1.88;;;;;;;;;;5025728;28;20386;-82
2022/11/17 04:31:04;;;;;;;10.05;2.72;;;;;;;;;;5008997;28;20375;-80
2022/11/17 04:33:30;;;;;;;1.77;1.42;;;;;;;;;;5025978;28;20098;-78
2022/11/17 04:35:56;;;;;;;0.10;0.10;;;;;;;;;;5027353;28;20030;-79
2022/11/17 04:38:25;;;;;;;1.83;1.42;;;;;;;;;;5027952;28;20059;-78
2022/11/17 04:43:42;;;;;;;1.52;1.42;;;;;;;;;;5024869;28;20044;-75
2022/11/17 04:46:08;;;;;;;1.20;1.10;;;;;;;;;;5028544;28;20199;-76
2022/11/17 04:48:34;;;;;;;1.40;1.30;;;;;;;;;;5028359;28;20032;-80
2022/11/17 04:51:06;;;;;;;3.78;2.92;;;;;;;;;;5025167;28;20439;-79
2022/11/17 04:53:32;;;;;;;5.43;3.58;;;;;;;;;;5028210;28;20395;-78
2022/11/17 04:55:58;;;;;;;;;;;;;;;;;;5028161;28;20022;-78
2022/11/17 04:58:24;;;;;;;;;;;;;;;;;;5021722;28;19979;-80
2022/11/17 05:00:50;;;;;;;;;;;;;;;;;;5007307;28;19921;-78
2022/11/17 05:06:02;;;;;;;;;;;;;;;;;;5024843;28;19964;-81
2022/11/17 05:08:29;;;;;;;;;;;;;;;;;;5007980;28;20394;-81
2022/11/17 05:13:41;;;;;;;18.10;3.50;;;;;;;;;;5021557;28;20041;-80
2022/11/17 05:18:56;;;;;;;49.47;7.80;;;;;;;;;;5026386;28;20053;-79
2022/11/17 05:21:24;;;;;;;1.33;1.23;;;;;;;;;;5009543;28;20044;-78
2022/11/17 05:23:53;;;;;;;1.50;1.33;;;;;;;;;;5009312;28;20148;-79
2022/11/17 05:26:25;;;;;;;10.48;3.00;;;;;;;;;;5005590;28;20326;-79
2022/11/17 05:28:51;;;;;;;3.10;2.05;;;;;;;;;;5007417;28;20510;-78
2022/11/17 05:31:18;;;;;;;7.70;3.40;;;;;;;;;;5025246;28;20017;-78
2022/11/17 05:33:44;;;;;;;5.38;2.80;;;;;;;;;;5005855;28;20030;-79
2022/11/17 05:36:13;;;;;;;2.47;1.52;;;;;;;;;;5003538;28;20041;-80
2022/11/17 05:38:39;;;;;;;11.30;7.43;;;;;;;;;;5022697;28;20447;-78
2022/11/17 05:41:06;;;;;;;1.50;1.40;;;;;;;;;;5029128;28;20029;-80
2022/11/17 05:43:32;;;;;;;4.88;1.58;;;;;;;;;;5024776;28;20037;-79
2022/11/17 05:45:59;;;;;;;1.88;1.73;;;;;;;;;;5010044;28;20082;-79
2022/11/17 05:48:25;;;;;;;14.73;5.63;;;;;;;;;;5025564;28;20041;-78
2022/11/17 05:50:55;;;;;;;10.15;3.00;;;;;;;;;;5006124;28;20630;-77
2022/11/17 05:53:22;;;;;;;4.68;3.58;;;;;;;;;;5031451;28;20078;-77
2022/11/17 05:55:48;;;;;;;7.32;2.47;;;;;;;;;;5012897;28;20030;-77
2022/11/17 05:58:35;;;;;;;16.75;3.10;;;;;;;;;;5028712;28;20153;-77
2022/11/17 06:01:02;;;;;;;33.38;4.30;;;;;;;;;;5010388;28;20040;-76
2022/11/17 06:03:34;;;;;;;0.00;0.00;;;;;;;;;;5010417;28;20602;-76
2022/11/17 06:06:00;;;;;;;;;;;;;;;;;;5010485;28;20646;-76
2022/11/17 06:08:27;;;;;;;;;;;;;;;;;;5008823;28;19913;-77
2022/11/17 06:10:54;;;;;;;;;;;;;;;;;;5010685;28;20862;-76
2022/11/17 06:13:24;;;;;;;;;;;;;;;;;;5026902;28;20111;-76
2022/11/17 06:15:50;;;;;;;;;;;;;;;;;;5028461;28;20014;-75
2022/11/17 06:18:19;;;;;;;;;;;;;;;;;;5008753;28;19924;-76
2022/11/17 06:20:45;;;;;;;;;;;;;;;;;;5008859;28;20402;-75
2022/11/17 06:23:11;;;;;;;;;;;;;;;;;;5012336;28;19913;-76
2022/11/17 06:25:47;;;;;;;;;;;;;;;;;;5043931;28;19901;-78
2022/11/17 06:28:13;;;;;;;;;;;;;;;;;;5038463;28;19953;-77
2022/11/17 06:33:26;;;;;;;;;;;;;;;;;;5026010;28;20250;-79
2022/11/17 06:35:52;;;;;;;;;;;;;;;;;;5032944;28;19915;-79
2022/11/17 06:38:18;;;;;;;;;;;;;;;;;;5040988;28;19917;-79
2022/11/17 06:40:44;;;;;;;;;;;;;;;;;;5051953;28;19937;-79
2022/11/17 06:43:10;;;;;;;;;;;;;;;;;;5043648;28;19967;-78
2022/11/17 06:45:37;;;;;;;;;;;;;;;;;;5045374;28;19913;-79
2022/11/17 06:48:03;;;;;;;;;;;;;;;;;;5049684;28;20434;-80
2022/11/17 06:50:29;;;;;;;;;;;;;;;;;;5041451;28;19943;-80
2022/11/17 06:52:55;;;;;;;;;;;;;;;;;;5063283;28;19970;-79
2022/11/17 06:55:21;;;;;;;;;;;;;;;;;;5051679;28;19916;-77
2022/11/17 06:57:50;;;;;;;;;;;;;;;;;;5044573;28;19917;-80
2022/11/17 07:00:16;;;;;;;;;;;;;;;;;;5042208;28;19956;-76
2022/11/17 07:02:42;;;;;;;;;;;;;;;;;;5045046;28;19913;-78
2022/11/17 07:05:08;;;;;;;;;;;;;;;;;;5045307;28;20371;-76
2022/11/17 07:07:34;;;;;;;;;;;;;;;;;;5048681;28;20733;-76
2022/11/17 07:10:00;;;;;;;;;;;;;;;;;;5046710;28;19920;-77
2022/11/17 07:12:26;;;;;;;;;;;;;;;;;;5049520;28;20370;-77
2022/11/17 07:14:52;;;;;;;;;;;;;;;;;;5047827;28;19921;-76
2022/11/17 07:17:37;;;;;;;;;;;;;;;;;;5045858;28;19970;-79
2022/11/17 07:22:48;;;;;;;;;;;;;;;;;;5043150;28;19935;-77
2022/11/17 07:25:14;;;;;;;;;;;;;;;;;;5040412;28;19921;-75
2022/11/17 07:27:40;;;;;;;;;;;;;;;;;;5046787;28;19913;-78
2022/11/17 07:30:06;;;;;;;;;;;;;;;;;;5047320;28;19913;-76
2022/11/17 07:32:42;;;;;;;;;;;;;;;;;;5043527;28;19919;-77
2022/11/17 07:35:26;;;;;;;;;;;;;;;;;;5042515;28;19923;-76
2022/11/17 07:37:52;;;;;;;;;;;;;;;;;;5045426;28;19975;-76
2022/11/17 07:40:19;;;;;;;;;;;;;;;;;;5041250;28;19921;-77
2022/11/17 07:42:45;;;;;;;;;;;;;;;;;;5043470;28;19913;-75
2022/11/17 07:45:11;;;;;;;;;;;;;;;;;;5045884;28;19912;-77
2022/11/17 07:47:37;;;;;;;;;;;;;;;;;;5041136;28;19921;-76
2022/11/17 07:50:03;;;;;;;;;;;;;;;;;;5046911;28;19916;-76
2022/11/17 07:52:30;;;;;;;;;;;;;;;;;;5041576;28;19928;-76
2022/11/17 07:54:56;;;;;;;;;;;;;;;;;;5044321;28;19924;-76
2022/11/17 07:57:23;;;;;;;;;;;;;;;;;;5041068;28;19979;-76
2022/11/17 07:59:49;;;;;;;;;;;;;;;;;;5044100;28;19916;-76
2022/11/17 08:02:16;;;;;;;;;;;;;;;;;;5043881;28;21361;-76
2022/11/17 08:04:42;;;;;;;;;;;;;;;;;;5042471;28;20311;-75
2022/11/17 08:07:08;;;;;;;;;;;;;;;;;;5049276;28;20029;-74
2022/11/17 08:09:34;;;;;;;;;;;;;;;;;;5046782;28;19920;-75
2022/11/17 08:12:00;;;;;;;;;;;;;;;;;;5044953;28;19923;-74
2022/11/17 08:14:26;;;;;;;;;;;;;;;;;;5049081;28;19913;-73
2022/11/17 08:16:52;;;;;;;;;;;;;;;;;;5044870;28;20022;-75
2022/11/17 08:19:19;;;;;;;;;;;;;;;;;;5047052;28;19917;-74
2022/11/17 08:21:45;;;;;;;;;;;;;;;;;;5045513;28;19956;-75
2022/11/17 08:24:11;;;;;;;;;;;;;;;;;;5044401;28;19917;-81
2022/11/17 08:26:37;;;;;;;;;;;;;;;;;;5039357;28;19921;-77
2022/11/17 08:29:04;;;;;;;;;;;;;;;;;;5042414;28;19921;-75
2022/11/17 08:31:30;;;;;;;;;;;;;;;;;;5043672;28;19921;-76
2022/11/17 08:33:56;;;;;;;;;;;;;;;;;;5041362;28;20016;-72
2022/11/17 08:36:22;;;;;;;;;;;;;;;;;;5047748;28;19913;-76
2022/11/17 08:38:50;;;;;;;;;;;;;;;;;;5043552;28;19944;-75
2022/11/17 08:41:17;;;;;;;;;;;;;;;;;;5024242;28;19913;-78
2022/11/17 08:43:43;;;;;;;;;;;;;;;;;;5004911;28;20603;-75
2022/11/17 08:46:09;;;;;;;;;;;;;;;;;;5026250;28;20004;-73
2022/11/17 08:48:36;;;;;;;;;;;;;;;;;;5012168;28;20346;-75
2022/11/17 08:51:02;;;;;;;;;;;;;;;;;;5035539;28;19976;-78
2022/11/17 08:53:30;;;;;;;;;;;;;;;;;;5035250;28;20007;-80
2022/11/17 08:55:56;;;;;;;;;;;;;;;;;;5022046;28;19913;-79
2022/11/17 08:58:22;;;;;;;;;;;;;;;;;;5006666;28;19975;-79
2022/11/17 09:01:06;;;;;;;;;;;;;;;;;;5022717;28;19917;-78
2022/11/17 09:03:32;;;;;;;;;;;;;;;;;;5005178;28;19944;-77
2022/11/17 09:06:00;;;;;;;;;;;;;;;;;;5009400;28;20279;-77
2022/11/17 09:08:27;;;;;;;;;;;;;;;;;;5004403;28;19978;-73
2022/11/17 09:10:53;;;;;;;;;;;;;;;;;;5024922;28;19917;-75
2022/11/17 09:13:19;;;;;;;;;;;;;;;;;;5009943;28;19921;-77
2022/11/17 09:15:45;;;;;;;;;;;;;;;;;;5027385;28;19928;-77
2022/11/17 09:18:11;;;;;;;;;;;;;;;;;;5007000;28;20275;-78
2022/11/17 09:20:37;;;;;;;;;;;;;;;;;;5025905;28;19940;-78
2022/11/17 09:23:03;;;;;;;;;;;;;;;;;;5028944;28;19913;-77
2022/11/17 09:25:29;;;;;;;;;;;;;;;;;;5033869;28;19952;-76
2022/11/17 09:27:55;;;;;;;;;;;;;;;;;;5011447;28;20244;-79
2022/11/17 09:30:21;;;;;;;;;;;;;;;;;;5024723;28;19913;-78
2022/11/17 09:32:48;;;;;;;;;;;;;;;;;;5019325;28;19920;-76
2022/11/17 09:35:14;;;;;;;;;;;;;;;;;;5009397;28;20351;-78
2022/11/17 09:37:40;;;;;;;;;;;;;;;;;;5015233;28;19968;-82
2022/11/17 09:40:06;;;;;;;;;;;;;;;;;;5040142;28;20382;-80
2022/11/17 09:42:32;;;;;;;;;;;;;;;;;;5047117;28;20351;-80
2022/11/17 09:44:58;;;;;;;;;;;;;;;;;;5049608;28;19913;-79
2022/11/17 09:47:24;;;;;;;;;;;;;;;;;;5050059;28;19948;-81
2022/11/17 09:49:50;;;;;;;;;;;;;;;;;;5041905;28;21347;-74
2022/11/17 09:52:16;;;;;;;;;;;;;;;;;;5046581;28;19927;-74
2022/11/17 09:54:42;;;;;;;;;;;;;;;;;;5044404;28;19913;-78
2022/11/17 09:57:08;;;;;;;;;;;;;;;;;;5043800;28;19956;-80
2022/11/17 09:59:35;;;;;;;;;;;;;;;;;;5045971;28;19928;-76
2022/11/17 10:02:13;;;;;;;;;;;;;;;;;;5049419;28;19966;-74
2022/11/17 10:04:39;;;;;;;;;;;;;;;;;;5045204;28;19919;-72
2022/11/17 10:07:05;;;;;;;;;;;;;;;;;;5045837;28;20378;-74
2022/11/17 10:09:31;;;;;;;;;;;;;;;;;;5046662;28;19924;-73
2022/11/17 10:11:57;;;;;;;;;;;;;;;;;;5045826;28;19913;-74
2022/11/17 10:14:23;;;;;;;;;;;;;;;;;;5046108;28;19913;-73
2022/11/17 10:16:49;;;;;;;;;;;;;;;;;;5046788;28;20275;-74
2022/11/17 10:19:16;;;;;;;;;;;;;;;;;;5047785;28;20523;-77
2022/11/17 10:21:42;;;;;;;;;;;;;;;;;;5047077;28;19931;-77
2022/11/17 10:24:08;;;;;;;;;;;;;;;;;;5043699;28;19924;-79
2022/11/17 10:26:34;;;;;;;;;;;;;;;;;;5043544;28;20055;-73
2022/11/17 10:29:00;;;;;;;;;;;;;;;;;;5046529;28;20019;-75
2022/11/17 10:31:26;;;;;;;;;;;;;;;;;;5048342;28;19919;-74
2022/11/17 10:33:52;;;;;;;;;;;;;;;;;;5043448;28;19955;-75
2022/11/17 10:36:19;;;;;;;;;;;;;;;;;;5043539;28;20012;-75
2022/11/17 10:38:45;;;;;;;;;;;;;;;;;;5040645;28;19921;-73
2022/11/17 10:41:11;;;;;;;;;;;;;;;;;;5025896;28;19913;-80
2022/11/17 10:43:38;;;;;;;;;;;;;;;;;;5007300;28;20643;-77
2022/11/17 10:46:04;;;;;;;;;;;;;;;;;;5009218;28;19917;-77
2022/11/17 10:48:30;;;;;;;;;;;;;;;;;;5027358;28;19976;-74
2022/11/17 10:50:56;;;;;;;;;;;;;;;;;;5026829;28;19933;-76
2022/11/17 10:53:22;;;;;;;;;;;;;;;;;;5013911;28;20007;-76
2022/11/17 10:55:48;;;;;;;;;;;;;;;;;;5025266;28;19913;-74
2022/11/17 10:58:14;;;;;;;;;;;;;;;;;;5029392;28;19914;-74
2022/11/17 11:00:40;;;;;;;;;;;;;;;;;;5028393;28;20043;-72
2022/11/17 11:03:06;;;;;;;;;;;;;;;;;;5014160;28;19960;-74
2022/11/17 11:05:32;;;;;;;;;;;;;;;;;;5022069;28;19917;-74
2022/11/17 11:07:58;;;;;;;;;;;;;;;;;;5027552;28;19943;-73
2022/11/17 11:10:24;;;;;;;;;;;;;;;;;;5039475;28;19960;-73
2022/11/17 11:12:50;;;;;;;;;;;;;;;;;;5029296;28;19928;-77
2022/11/17 11:15:16;;;;;;;;;;;;;;;;;;5056878;28;19920;-76
2022/11/17 11:17:43;;;;;;;;;;;;;;;;;;5040590;28;19921;-78
2022/11/17 11:20:09;;;;;;;;;;;;;;;;;;5035928;28;20007;-78
2022/11/17 11:22:36;;;;;;;;;;;;;;;;;;5016190;28;19982;-78
2022/11/17 11:25:02;;;;;;;;;;;;;;;;;;5035593;28;20352;-79
2022/11/17 11:27:29;;;;;;;;;;;;;;;;;;5011794;28;19913;-78
2022/11/17 11:29:55;;;;;;;;;;;;;;;;;;5028878;28;20309;-78
2022/11/17 11:32:21;;;;;;;;;;;;;;;;;;5032486;28;19917;-77
2022/11/17 11:34:47;;;;;;;;;;;;;;;;;;5029463;28;19913;-77
2022/11/17 11:37:13;;;;;;;;;;;;;;;;;;5029468;28;20012;-76
2022/11/17 11:39:39;;;;;;;;;;;;;;;;;;5032216;28;19920;-79
2022/11/17 11:42:05;;;;;;;;;;;;;;;;;;5049777;28;19924;-75
2022/11/17 11:44:31;;;;;;;;;;;;;;;;;;5046911;28;20302;-75
2022/11/17 11:46:57;;;;;;;;;;;;;;;;;;5046079;28;20456;-75
2022/11/17 11:49:24;;;;;;;;;;;;;;;;;;5047354;28;20004;-75
2022/11/17 11:51:50;;;;;;;;;;;;;;;;;;5047224;28;19912;-75
2022/11/17 11:54:16;;;;;;;;;;;;;;;;;;5052432;28;19925;-75
2022/11/17 11:56:43;;;;;;;;;;;;;;;;;;5045502;28;19979;-77
2022/11/17 11:59:09;;;;;;;;;;;;;;;;;;5048174;28;20402;-78
2022/11/17 12:01:35;;;;;;;;;;;;;;;;;;5045857;28;20647;-76
2022/11/17 12:04:01;;;;;;;;;;;;;;;;;;5051130;28;20333;-77
2022/11/17 12:06:39;;;;;;;;;;;;;;;;;;5047113;28;19959;-77
2022/11/17 12:09:05;;;;;;;;;;;;;;;;;;5054664;28;19920;-74
2022/11/17 12:14:17;;;;;;;;;;;;;;;;;;5053286;28;19988;-73
2022/11/17 12:16:44;;;;;;;;;;;;;;;;;;5052472;28;19924;-76
2022/11/17 12:19:10;;;;;;;;;;;;;;;;;;5056182;28;20321;-78
2022/11/17 12:21:36;;;;;;;;;;;;;;;;;;5048940;28;19936;-78
2022/11/17 12:24:02;;;;;;;;;;;;;;;;;;5050519;28;19951;-79
2022/11/17 12:26:28;;;;;;;;;;;;;;;;;;5057993;28;19917;-78
2022/11/17 12:28:54;;;;;;;;;;;;;;;;;;5059319;28;20024;-79
2022/11/17 12:31:20;;;;;;;;;;;;;;;;;;5061201;28;19912;-78
2022/11/17 12:33:46;;;;;;;;;;;;;;;;;;5048077;28;19921;-79
2022/11/17 12:36:12;;;;;;;;;;;;;;;;;;5060895;28;19913;-79
2022/11/17 12:38:39;;;;;;;;;;;;;;;;;;5050924;28;19913;-80
2022/11/17 12:41:05;;;;;;;;;;;;;;;;;;5014597;28;19925;-81
2022/11/17 12:43:33;;;;;;;;;;;;;;;;;;5012422;28;20394;-79
2022/11/17 12:45:59;;;;;;;;;;;;;;;;;;5012523;28;20256;-79
2022/11/17 12:48:25;;;;;;;;;;;;;;;;;;5009614;28;19917;-79
2022/11/17 12:50:51;;;;;;;;;;;;;;;;;;5009777;28;19960;-79
2022/11/17 12:53:17;;;;;;;;;;;;;;;;;;5008450;28;19924;-78
2022/11/17 12:55:43;;;;;;;;;;;;;;;;;;5013294;28;19967;-79
2022/11/17 12:58:09;;;;;;;;;;;;;;;;;;5028396;28;19914;-79
2022/11/17 13:00:36;;;;;;;;;;;;;;;;;;5013359;28;19924;-80
2022/11/17 13:03:05;;;;;;;;;;;;;;;;;;5013407;28;19913;-79
2022/11/17 13:05:31;;;;;;;;;;;;;;;;;;5009599;28;19918;-79
2022/11/17 13:07:57;;;;;;;;;;;;;;;;;;5027108;28;19920;-78
2022/11/17 13:10:23;;;;;;;;;;;;;;;;;;5009499;28;19917;-79
2022/11/17 13:12:49;;;;;;;;;;;;;;;;;;5021960;28;20050;-79
2022/11/17 13:15:15;;;;;;;;;;;;;;;;;;5009931;28;20283;-79
2022/11/17 13:17:41;;;;;;;;;;;;;;;;;;5008727;28;19944;-80
2022/11/17 13:20:07;;;;;;;;;;;;;;;;;;5022712;28;19917;-79
2022/11/17 13:22:33;;;;;;;;;;;;;;;;;;5023349;28;19974;-78
2022/11/17 13:25:18;;;;;;;;;;;;;;;;;;5012681;28;20371;-80
2022/11/17 13:27:44;;;;;;;;;;;;;;;;;;5032255;28;19952;-80
2022/11/17 13:32:56;;;;;;;;;;;;;;;;;;5024543;28;20426;-74
2022/11/17 13:35:22;;;;;;;;;;;;;;;;;;5011732;28;19936;-75
2022/11/17 13:37:49;;;;;;;;;;;;;;;;;;5016436;28;19917;-74
2022/11/17 13:40:15;;;;;;;;;;;;;;;;;;5029278;28;19926;-73
2022/11/17 13:42:41;;;;;;;;;;;;;;;;;;5025124;28;19921;-74
2022/11/17 13:45:07;;;;;;;;;;;;;;;;;;5018378;28;19995;-74
2022/11/17 13:47:33;;;;;;;;;;;;;;;;;;5012300;28;19964;-76
2022/11/17 13:49:59;;;;;;;;;;;;;;;;;;5028168;28;19913;-76
2022/11/17 13:52:25;;;;;;;;;;;;;;;;;;5030192;28;19917;-75
2022/11/17 13:54:51;;;;;;;;;;;;;;;;;;5012689;28;19952;-74
2022/11/17 13:57:17;;;;;;;;;;;;;;;;;;5015009;28;19917;-74
2022/11/17 13:59:44;;;;;;;;;;;;;;;;;;5015981;28;20546;-74
2022/11/17 14:02:10;;;;;;;;;;;;;;;;;;5028298;28;19916;-75
2022/11/17 14:04:36;;;;;;;;;;;;;;;;;;5011893;28;19920;-74
2022/11/17 14:07:02;;;;;;;;;;;;;;;;;;5029460;28;19944;-75
2022/11/17 14:09:28;;;;;;;;;;;;;;;;;;5012185;28;20007;-74
2022/11/17 14:11:54;;;;;;;;;;;;;;;;;;5025609;28;19913;-74
2022/11/17 14:14:20;;;;;;;;;;;;;;;;;;5011764;28;20264;-74
2022/11/17 14:16:46;;;;;;;;;;;;;;;;;;5026210;28;19924;-74
2022/11/17 14:19:13;;;;;;;;;;;;;;;;;;5010222;28;20389;-74
2022/11/17 14:21:39;;;;;;;;;;;;;;;;;;5025537;28;19920;-75
2022/11/17 14:24:05;;;;;;;;;;;;;;;;;;5012959;28;20378;-73
2022/11/17 14:26:31;;;;;;;;;;;;;;;;;;5019407;28;19913;-74
2022/11/17 14:29:03;;;;;;;;;;;;;;;;;;5025963;28;19961;-74
2022/11/17 14:31:29;;;;;;;;;;;;;;;;;;5007019;28;20074;-75
2022/11/17 14:33:55;;;;;;;;;;;;;;;;;;5025117;28;19940;-75
2022/11/17 14:36:21;;;;;;;;;;;;;;;;;;5014927;28;19921;-75
2022/11/17 14:38:47;;;;;;;;;;;;;;;;;;5032429;28;19931;-76
2022/11/17 14:41:14;;;;;;;;;;;;;;;;;;5033747;28;20024;-77
2022/11/17 14:43:40;;;;;;;;;;;;;;;;;;5027206;28;20367;-76
2022/11/17 14:46:06;;;;;;;;;;;;;;;;;;5027388;28;19913;-75
2022/11/17 14:48:32;;;;;;;;;;;;;;;;;;5023361;28;20044;-74
2022/11/17 14:50:58;;;;;;;;;;;;;;;;;;5006123;28;19913;-75
2022/11/17 14:53:24;;;;;;;;;;;;;;;;;;5023455;28;19913;-75
2022/11/17 14:55:50;;;;;;;;;;;;;;;;;;5007090;28;20334;-74
2022/11/17 14:58:16;;;;;;;;;;;;;;;;;;5022202;28;19916;-74
2022/11/17 15:00:42;;;;;;;;;;;;;;;;;;5022071;28;20375;-73
2022/11/17 15:03:08;;;;;;;;;;;;;;;;;;5007933;28;19913;-75
2022/11/17 15:05:35;;;;;;;;;;;;;;;;;;5009893;28;19943;-75
2022/11/17 15:08:02;;;;;;;;;;;;;;;;;;5007635;28;20363;-75
2022/11/17 15:10:28;;;;;;;;;;;;;;;;;;5024008;28;20399;-75
2022/11/17 15:12:54;;;;;;;;;;;;;;;;;;5024819;28;20318;-78
2022/11/17 15:15:20;;;;;;;;;;;;;;;;;;5002839;28;20270;-75
2022/11/17 15:17:46;;;;;;;;;;;;;;;;;;5027393;28;19910;-78
2022/11/17 15:20:12;;;;;;;;;;;;;;;;;;5003788;28;19929;-76
2022/11/17 15:22:38;;;;;;;;;;;;;;;;;;5005832;28;20008;-76
2022/11/17 15:25:04;;;;;;;;;;;;;;;;;;5007456;28;20010;-76
2022/11/17 15:27:30;;;;;;;;;;;;;;;;;;5024870;28;20343;-78
2022/11/17 15:29:56;;;;;;;;;;;;;;;;;;5008766;28;19924;-75
2022/11/17 15:32:22;;;;;;;;;;;;;;;;;;5025802;28;19918;-75
2022/11/17 15:34:49;;;;;;;;;;;;;;;;;;5024990;28;19916;-75
2022/11/17 15:37:15;;;;;;;;;;;;;;;;;;5009217;28;19921;-75
2022/11/17 15:39:41;;;;;;;;;;;;;;;;;;5017076;28;19922;-76
2022/11/17 15:42:07;;;;;;;;;;;;;;;;;;5013286;28;20271;-75
2022/11/17 15:44:33;;;;;;;;;;;;;;;;;;5017534;28;19913;-74
2022/11/17 15:46:59;;;;;;;;;;;;;;;;;;5022702;28;19913;-75
2022/11/17 15:49:25;;;;;;;;;;;;;;;;;;5025255;28;19971;-74
2022/11/17 15:51:51;;;;;;;;;;;;;;;;;;5030449;28;19968;-74
2022/11/17 15:54:17;;;;;;;;;;;;;;;;;;5033208;28;20431;-75
2022/11/17 15:56:43;;;;;;;;;;;;;;;;;;5031888;28;20325;-76
2022/11/17 15:59:09;;;;;;;;;;;;;;;;;;5029600;28;19913;-78
2022/11/17 16:01:35;;;;;;;;;;;;;;;;;;5041910;28;19921;-75
2022/11/17 16:04:01;;;;;;;;;;;;;;;;;;5021146;28;20003;-75
2022/11/17 16:06:27;;;;;;;;;;;;;;;;;;5033421;28;19913;-75
2022/11/17 16:08:53;;;;;;;;;;;;;;;;;;5030660;28;19913;-75
2022/11/17 16:11:20;;;;;;;;;;;;;;;;;;5012915;28;19913;-75
2022/11/17 16:13:46;;;;;;;;;;;;;;;;;;5014724;28;20030;-75
2022/11/17 16:16:12;;;;;;;;;;;;;;;;;;5014619;28;19913;-76
2022/11/17 16:18:38;;;;;;;;;;;;;;;;;;5033324;28;19917;-76
2022/11/17 16:21:04;;;;;;;;;;;;;;;;;;5014423;28;20024;-76
2022/11/17 16:23:30;;;;;;;;;;;;;;;;;;5022663;28;19914;-78
2022/11/17 16:25:56;;;;;;;;;;;;;;;;;;5016385;28;19920;-76
2022/11/17 16:28:22;;;;;;;;;;;;;;;;;;5024543;28;19920;-75
2022/11/17 16:30:49;;;;;;;;;;;;;;;;;;5031122;28;20337;-76
2022/11/17 16:33:15;;;;;;;;;;;;;;;;;;5016118;28;19935;-75
2022/11/17 16:35:41;;;;;;;;;;;;;;;;;;5006016;28;19917;-76
2022/11/17 16:38:07;;;;;;;;;;;;;;;;;;5006777;28;19913;-76
2022/11/17 16:40:36;;;;;;;;;;;;;;;;;;5008061;28;20020;-76
2022/11/17 16:43:02;;;;;;;;;;;;;;;;;;5012701;28;19909;-75
2022/11/17 16:45:28;;;;;;;;;;;;;;;;;;5026134;28;19920;-76
2022/11/17 16:47:54;;;;;;;;;;;;;;;;;;5030258;28;19960;-77